Weather observations for the past three days for
North Wilkesboro, Wilkes County Airport
Imperial (Metric)
Date Time (edt) Wind (mph) Vis. (mi.) Weather Sky Cond. Temperature (ºF) Relative Humidity Wind Chill (°F) Heat Index (°F) Pressure Precipitation (in)
Air Dwpt 6 hour altimeter (in) sea level (mb) 1 hr 3 hr 6 hr
Max. Min.
04 19:55 S 5 10.00 Fair CLR 69.8 41 35% 29.98 0.0
04 19:35 S 9 10.00 Fair CLR 71.6 41 33% 29.97 0.0
04 19:15 S 7 10.00 Fair CLR 71.6 42.8 36% 29.97 0.0
04 18:55 S 12 10.00 Fair CLR 73.4 41 31% 29.97 0.0
04 18:35 S 7 10.00 Fair CLR 73.4 42.8 33% 29.97 0.0
04 18:15 S 8 G 20 10.00 Fair CLR 73.4 42.8 33% 29.97 0.0
04 17:55 S 8 G 16 10.00 Fair CLR 75.2 42.8 31% 77 29.97 0.0
04 17:35 S 10 G 16 10.00 Fair CLR 75.2 42.8 31% 77 29.97 0.0
04 17:15 S 9 G 17 10.00 Fair CLR 77 42.8 30% 78 29.97 0.0
04 16:55 S 13 G 17 10.00 Fair CLR 77 42.8 30% 78 29.97 0.0
04 16:35 S 8 G 16 10.00 Fair CLR 77 42.8 30% 78 29.97 0.0
04 16:15 S 7 10.00 Fair CLR 77 42.8 30% 78 29.98 0.0
04 15:55 SW 12 10.00 Fair CLR 77 42.8 30% 78 29.99 0.0
04 15:35 S 12 G 20 10.00 Fair CLR 77 42.8 30% 78 29.99 0.0
04 15:15 S 10 10.00 Fair CLR 77 42.8 30% 78 30 0.0
04 14:55 S 12 G 17 10.00 Fair CLR 73.4 42.8 33% 30.01 0.0
04 14:35 S 15 G 18 10.00 Fair CLR 75.2 42.8 31% 77 30.01 0.0
04 14:15 SW 12 G 18 10.00 Fair CLR 73.4 42.8 33% 30.03 0.0
04 13:55 SW 10 G 16 10.00 Fair CLR 73.4 42.8 33% 30.03 0.0
04 13:35 W 8 10.00 Fair CLR 71.6 41 33% 30.04 0.0
04 13:15 SW 6 10.00 Fair CLR 71.6 42.8 36% 30.04 0.0
04 12:55 S 8 10.00 Fair CLR 71.6 42.8 36% 30.05 0.0
04 12:35 W 5 10.00 Fair CLR 69.8 42.8 38% 30.05 0.0
04 12:15 SW 6 10.00 Fair CLR 69.8 41 35% 30.06 0.0
04 11:55 SW 7 10.00 Fair CLR 68 41 38% 30.07 0.0
04 11:35 W 7 10.00 Fair CLR 68 41 38% 30.09 0.0
04 11:15 SW 9 10.00 Fair CLR 68 41 38% 30.1 0.0
04 10:55 SW 8 10.00 Fair CLR 66.2 39.2 37% 30.1 0.0
04 10:35 W 8 10.00 Fair CLR 64.4 41 43% 30.1 0.0
04 10:15 SW 9 10.00 Partly Cloudy SCT120 62.6 41 45% 30.09 0.0
04 09:55 SW 6 10.00 Mostly Cloudy BKN120 59 41 51% 30.1 0.0
04 09:35 SW 5 10.00 Mostly Cloudy BKN120 55.4 39.2 55% 30.09 0.0
04 09:15 W 6 10.00 Fair CLR 53.6 37.4 54% 30.1 0.0
04 08:55 Calm 10.00 Fair CLR 51.8 35.6 54% 30.09 0.0
04 08:35 Calm 10.00 Partly Cloudy SCT110 50 37.4 62% 30.09 0.0
04 08:15 Calm 10.00 Overcast OVC120 46.4 37.4 71% 30.08 0.0
04 07:55 Calm 10.00 Mostly Cloudy BKN120 42.8 35.6 76% 30.09 0.0
04 07:35 Calm 10.00 Partly Cloudy SCT120 39.2 33.8 81% 30.08 0.0
04 07:15 Calm 10.00 Partly Cloudy SCT120 37.4 33.8 87% 30.09 0.0
04 06:55 Calm 10.00 Mostly Cloudy BKN120 35.6 33.8 93% 30.08 0.0
04 06:35 Calm 10.00 Mostly Cloudy BKN120 37.4 33.8 87% 30.08 0.0
04 06:15 Calm 10.00 Fair CLR 35.6 32 87% 30.08 0.0
04 05:55 Calm 10.00 Fair CLR 35.6 33.8 93% 30.09 0.0
04 05:35 Calm 10.00 Partly Cloudy SCT120 35.6 33.8 93% 30.09 0.0
04 05:15 Calm 10.00 Partly Cloudy SCT120 39.2 32 75% 30.09 0.0
04 04:55 Calm 10.00 Fair CLR 35.6 33.8 93% 30.09 0.0
04 04:35 Calm 10.00 Fair CLR 35.6 32 87% 30.08 0.0
04 04:15 Calm 10.00 Fair CLR 37.4 33.8 87% 30.08 0.0
04 03:55 Calm 10.00 Fair CLR 37.4 33.8 87% 30.08 0.0
04 03:35 Calm 10.00 Fair CLR 39.2 33.8 81% 30.07 0.0
04 03:15 Calm 10.00 Fair CLR 41 32 70% 30.08 0.0
04 02:55 Calm 10.00 Fair CLR 42.8 32 66% 30.08 0.0
04 02:15 Calm 10.00 Fair CLR 41 33.8 76% 30.08 0.0
04 02:00 Calm 10.00 Fair CLR 41 33.8 76% 30.08 0.0
04 01:35 Calm 10.00 Fair CLR 41 33.8 76% 30.09 0.0
04 01:15 Calm 10.00 Fair CLR 41 33.8 76% 30.09 0.0
04 00:55 Calm 10.00 Fair CLR 42.8 33.8 71% 30.09 0.0
04 00:35 Calm 10.00 Fair CLR 42.8 33.8 71% 30.09 0.0
04 00:15 Calm 10.00 Fair CLR 44.6 32 61% 30.08 0.0
03 23:55 Calm 10.00 Fair CLR 42.8 33.8 71% 30.08 0.0
03 23:35 Calm 10.00 Fair CLR 46.4 33.8 62% 30.07 0.0
03 23:15 Calm 10.00 Fair CLR 46.4 33.8 62% 30.08 0.0
03 22:55 Calm 10.00 Fair CLR 44.6 35.6 71% 30.09 0.0
03 22:35 Calm 10.00 Fair CLR 48.2 33.8 58% 30.09 0.0
03 22:15 Calm 10.00 Fair CLR 50 33.8 54% 30.07 0.0
03 21:55 Calm 10.00 Fair CLR 50 33.8 54% 30.07 0.0
03 21:35 Calm 10.00 Fair CLR 50 33.8 54% 30.05 0.0
03 21:15 Calm 10.00 Fair CLR 51.8 33.8 50% 30.05 0.0
03 20:55 Calm 10.00 Fair CLR 53.6 33.8 47% 30.05 0.0
03 20:35 Calm 10.00 Fair CLR 55.4 33.8 44% 30.04 0.0
03 20:15 Calm 10.00 Fair CLR 59 32 36% 30.03 0.0
03 19:55 Calm 10.00 Fair CLR 60.8 32 34% 30.03 0.0
03 19:35 SW 3 10.00 Fair CLR 62.6 32 32% 30.03 0.0
03 19:15 SW 6 10.00 Fair CLR 64.4 32 30% 30.03 0.0
03 18:55 S 7 10.00 Fair CLR 64.4 30.2 28% 30.03 0.0
03 18:35 S 9 10.00 Fair CLR 64.4 30.2 28% 30.03 0.0
03 18:15 S 7 10.00 Fair CLR 64.4 30.2 28% 30.03 0.0
03 17:55 S 7 10.00 Fair CLR 64.4 30.2 28% 30.03 0.0
03 17:35 SW 8 G 17 10.00 Fair CLR 66.2 28.4 24% 30.04 0.0
03 17:15 SW 6 10.00 Fair CLR 68 24.8 20% 30.04 0.0
03 16:55 Calm 10.00 Fair CLR 68 23 18% 30.05 0.0
03 16:35 Calm 10.00 Fair CLR 66.2 26.6 22% 30.05 0.0
03 16:15 SW 9 G 17 10.00 Fair CLR 66.2 26.6 22% 30.06 0.0
03 15:55 Calm 10.00 Fair CLR 64.4 23 21% 30.07 0.0
03 15:35 W 8 10.00 Fair CLR 64.4 24.8 22% 30.08 0.0
03 15:15 S 7 10.00 Fair CLR 64.4 26.6 24% 30.09 0.0
03 14:55 S 5 10.00 Fair CLR 64.4 26.6 24% 30.1 0.0
03 14:35 W 3 10.00 Fair CLR 62.6 23 22% 30.11 0.0
03 14:15 W 8 10.00 Fair CLR 62.6 23 22% 30.12 0.0
03 13:55 SW 7 10.00 Fair CLR 60.8 23 23% 30.12 0.0
03 13:35 W 7 10.00 Fair CLR 60.8 21.2 22% 30.12 0.0
03 13:15 W 8 G 16 10.00 Fair CLR 60.8 21.2 22% 30.14 0.0
03 12:55 N 5 10.00 Fair CLR 59 21.2 23% 30.14 0.0
03 12:35 SW 9 10.00 Fair CLR 59 23 25% 30.15 0.0
03 12:15 SW 3 10.00 Fair CLR 57.2 21.2 25% 30.17 0.0
03 11:55 N 10 10.00 Fair CLR 55.4 21.2 26% 30.17 0.0
03 11:35 N 5 10.00 Fair CLR 55.4 24.8 31% 30.17 0.0
03 11:15 N 6 10.00 Fair CLR 55.4 24.8 31% 30.17 0.0
03 10:55 N 5 10.00 Fair CLR 53.6 26.6 35% 30.17 0.0
03 10:35 N 6 G 17 10.00 Fair CLR 51.8 26.6 38% 30.17 0.0
03 10:15 N 5 10.00 Fair CLR 51.8 26.6 38% 30.18 0.0
03 09:55 NW 8 10.00 Fair CLR 51.8 28.4 41% 30.18 0.0
03 09:35 NW 9 G 16 10.00 Fair CLR 50 28.4 43% 47 30.18 0.0
03 09:15 NW 6 10.00 Fair CLR 50 30.2 47% 48 30.18 0.0
03 08:55 Calm 10.00 Fair CLR 48.2 32 54% 30.18 0.0
03 08:35 W 5 10.00 Fair CLR 46.4 33.8 62% 45 30.17 0.0
03 08:15 Calm 10.00 Fair CLR 44.6 32 61% 30.17 0.0
03 07:55 NW 5 10.00 Fair CLR 42.8 32 66% 41 30.16 0.0
03 07:35 NW 5 10.00 Fair CLR 37.4 32 81% 34 30.15 0.0
03 07:15 Calm 10.00 Fair CLR 33.8 32 93% 30.14 0.0
03 06:55 Calm 10.00 Fair CLR 32 32 100% 30.14 0.0
03 06:35 Calm 10.00 Fair CLR 32 32 100% 30.13 0.0
03 06:15 Calm 10.00 Fair CLR 33.8 32 93% 30.12 0.0
03 05:55 W 3 10.00 Fair CLR 33.8 32 93% 30.11 0.0
03 05:35 W 3 10.00 Fair CLR 33.8 32 93% 30.11 0.0
03 05:15 Calm 10.00 Fair CLR 33.8 32 93% 30.11 0.0
03 04:55 Calm 10.00 Fair CLR 33.8 32 93% 30.11 0.0
03 04:40 Calm 10.00 Fair CLR 33.8 32 93% 30.1 0.0
03 04:15 Calm 10.00 Fair CLR 33.8 32 93% 30.1 0.0
03 03:55 Calm 10.00 Fair CLR 35.6 32 87% 30.09 0.0
03 03:35 Calm 10.00 Fair CLR 35.6 32 87% 30.09 0.0
03 03:15 Calm 10.00 Fair CLR 35.6 32 87% 30.08 0.0
03 02:55 N 6 10.00 Fair CLR 37.4 32 81% 33 30.07 0.0
03 02:35 N 3 10.00 Fair CLR 39.2 32 75% 30.07 0.0
03 02:15 N 5 10.00 Fair CLR 37.4 32 81% 34 30.07 0.0
03 01:55 Calm 10.00 Fair CLR 37.4 32 81% 30.07 0.0
03 01:35 Calm 10.00 Fair CLR 39.2 32 75% 30.07 0.0
03 01:15 Calm 10.00 Fair CLR 39.2 32 75% 30.06 0.0
03 00:55 NW 3 10.00 Fair CLR 44.6 32 61% 30.06 0.0
03 00:35 NW 5 10.00 Fair CLR 41 32 70% 38 30.06 0.0
03 00:15 NW 5 10.00 Fair CLR 44.6 32 61% 43 30.05 0.0
02 23:55 NW 5 10.00 Fair CLR 42.8 32 66% 41 30.05 0.0
02 23:35 Calm 10.00 Fair CLR 41 32 70% 30.05 0.0
02 23:15 NW 3 10.00 Fair CLR 41 32 70% 30.05 0.0
02 22:55 Calm 10.00 Fair CLR 42.8 32 66% 30.04 0.0
02 22:35 Calm 10.00 Fair CLR 42.8 32 66% 30.04 0.0
02 22:15 Calm 10.00 Fair CLR 44.6 32 61% 30.03 0.0
02 21:55 Calm 10.00 Fair CLR 46.4 30.2 53% 30.03 0.0
02 21:35 NW 3 10.00 Fair CLR 48.2 32 54% 30.02 0.0
02 21:15 Calm 10.00 Fair CLR 50 30.2 47% 30.02 0.0
02 20:55 NW 6 10.00 Fair CLR 51.8 30.2 44% 30.01 0.0
02 20:35 NW 7 10.00 Fair CLR 51.8 30.2 44% 30 0.0
02 20:15 NW 5 10.00 Fair CLR 53.6 30.2 41% 29.99 0.0
02 19:55 NW 7 10.00 Fair CLR 53.6 30.2 41% 29.98 0.0
02 19:35 NW 8 G 17 10.00 Fair CLR 55.4 30.2 38% 29.97 0.0
02 19:15 NW 12 G 21 10.00 Partly Cloudy SCT100 57.2 30.2 36% 29.95 0.0
02 18:55 NW 13 G 21 10.00 Overcast OVC100 59 30.2 34% 29.95 0.0
02 18:35 NW 9 G 22 10.00 Mostly Cloudy BKN090 59 30.2 34% 29.95 0.0
02 18:15 NW 9 G 23 10.00 Partly Cloudy SCT090 60.8 30.2 31% 29.94 0.0
02 17:55 NW 9 G 18 10.00 Partly Cloudy SCT090 60.8 30.2 31% 29.93 0.0
02 17:35 NW 9 G 21 10.00 Partly Cloudy SCT090 60.8 30.2 31% 29.92 0.0
02 17:15 NW 12 G 17 10.00 Overcast OVC090 62.6 32 32% 29.91 0.0
02 16:55 N 12 G 16 10.00 Mostly Cloudy BKN090 62.6 32 32% 29.9 0.0
02 16:35 N 6 10.00 Partly Cloudy SCT090 60.8 30.2 31% 29.9 0.0
02 16:15 N 7 10.00 Fair CLR 64.4 30.2 28% 29.91 0.0
02 15:55 W 5 10.00 Fair CLR 62.6 32 32% 29.91 0.0
02 15:35 Calm 10.00 Fair CLR 62.6 32 32% 29.92 0.0
02 15:15 SE 8 10.00 Fair CLR 62.6 33.8 34% 29.93 0.0
02 14:55 SE 6 10.00 Fair CLR 60.8 32 34% 29.93 0.0
02 14:35 E 8 10.00 Fair CLR 60.8 32 34% 29.93 0.0
02 14:15 SE 6 10.00 Fair CLR 60.8 32 34% 29.94 0.0
02 13:55 SE 7 10.00 Fair CLR 59 32 36% 29.95 0.0
02 13:35 Calm 10.00 Partly Cloudy SCT065 59 30.2 34% 29.96 0.0
02 13:15 Calm 10.00 Fair CLR 59 30.2 34% 29.97 0.0
02 12:55 S 3 10.00 Partly Cloudy SCT085 57.2 30.2 36% 29.98 0.0
02 12:35 Calm 10.00 Overcast SCT070 OVC085 53.6 28.4 38% 30 0.0
02 12:15 E 3 10.00 Overcast BKN070 OVC085 53.6 28.4 38% 30.01 0.0
02 11:55 NE 3 10.00 Overcast OVC060 53.6 28.4 38% 30.01 0.0
02 11:35 Calm 10.00 Overcast OVC060 53.6 30.2 41% 30.02 0.0
02 11:15 N 5 10.00 Overcast BKN060 OVC085 51.8 30.2 44% 30.01 0.0
02 10:55 NE 5 10.00 Overcast OVC060 51.8 30.2 44% 30.01 0.0
02 10:35 NE 3 10.00 Overcast OVC060 51.8 32 47% 30 0.0
02 10:15 N 5 10.00 Overcast OVC060 51.8 32 47% 30 0.0
02 09:55 N 6 10.00 Overcast OVC060 51.8 32 47% 30 0.0
02 09:35 NE 6 10.00 Overcast OVC060 51.8 33.8 50% 30 0.0
02 09:15 NE 3 10.00 Overcast OVC060 51.8 33.8 50% 30 0.0
02 08:55 Calm 10.00 Overcast OVC060 51.8 37.4 58% 30 0.0
02 08:35 N 3 10.00 Overcast OVC055 51.8 37.4 58% 29.99 0.0
02 08:15 Calm 10.00 Overcast OVC055 51.8 37.4 58% 29.98 0.0
02 07:55 Calm 10.00 Overcast SCT060 OVC065 50 35.6 58% 29.98 0.0
02 07:35 Calm 10.00 Overcast OVC060 50 37.4 62% 29.98 0.0
02 07:15 Calm 10.00 Mostly Cloudy BKN060 BKN080 50 37.4 62% 29.98 0.0
02 06:55 Calm 10.00 Partly Cloudy SCT060 50 37.4 62% 29.97 0.0
02 06:35 Calm 10.00 Partly Cloudy SCT060 50 37.4 62% 29.97 0.0
02 06:15 Calm 10.00 Partly Cloudy SCT060 SCT075 51.8 37.4 58% 29.97 0.0
02 05:55 N 3 10.00 Overcast SCT060 OVC075 51.8 37.4 58% 29.97 0.0
02 05:35 N 3 10.00 Overcast OVC075 51.8 37.4 58% 29.97 0.0
02 05:15 N 5 10.00 Mostly Cloudy BKN075 51.8 37.4 58% 29.98 0.0
02 04:55 Calm 10.00 Partly Cloudy SCT075 51.8 41 67% 29.97 0.0
02 04:35 Calm 10.00 Mostly Cloudy BKN075 51.8 41 67% 29.97 0.0
02 04:15 Calm 10.00 Mostly Cloudy BKN075 51.8 41 67% 29.97 0.0
02 03:55 NW 6 10.00 Partly Cloudy SCT075 50 42.8 76% 48 29.96 0.0
02 03:35 Calm 10.00 Fair CLR 50 44.6 82% 29.95 0.0
02 03:15 Calm 10.00 Fair CLR 50 44.6 82% 29.95 0.0
02 02:55 Calm 10.00 Fair CLR 50 44.6 82% 29.95 0.0
02 02:35 Calm 10.00 Fair CLR 50 46.4 88% 29.96 0.0
02 02:15 Calm 10.00 Fair CLR 50 44.6 82% 29.96 0.0
02 01:55 N 3 10.00 Fair CLR 51.8 44.6 77% 29.97 0.0
02 01:35 N 3 10.00 Fair CLR 50 44.6 82% 29.97 0.0
02 01:15 Calm 10.00 Fair CLR 51.8 44.6 77% 29.97 0.0
02 00:55 N 5 10.00 Fair CLR 51.8 46.4 82% 29.97 0.0
02 00:35 N 3 10.00 Fair CLR 51.8 44.6 77% 29.97 0.0
02 00:15 NE 3 10.00 Fair CLR 53.6 44.6 72% 29.96 0.0
01 23:55 Calm 10.00 Fair CLR 53.6 44.6 72% 29.96 0.0
01 23:35 Calm 10.00 Fair CLR 53.6 44.6 72% 29.96 0.0
01 23:15 Calm 10.00 Fair CLR 53.6 44.6 72% 29.97 0.0
01 22:55 Calm 10.00 Fair CLR 51.8 44.6 77% 29.97 0.0
01 22:35 Calm 10.00 Fair CLR 53.6 44.6 72% 29.96 0.0
01 22:15 Calm 10.00 Fair CLR 53.6 44.6 72% 29.96 0.0
01 21:55 Calm 10.00 Fair CLR 53.6 44.6 72% 29.96 0.0
01 21:35 Calm 10.00 Fair CLR 53.6 44.6 72% 29.95 0.0
01 21:15 Calm 10.00 Fair CLR 55.4 44.6 67% 29.95 0.0
01 20:55 Calm 10.00 Fair CLR 55.4 44.6 67% 29.94 0.0
01 20:35 S 3 10.00 Fair CLR 59 44.6 59% 29.93 0.0
01 20:15 S 5 10.00 Fair CLR 59 44.6 59% 29.91 0.0
Date Time (edt) Wind (mph) Vis. (mi.) Weather Sky Cond. Air Dwpt Max. Min. Relative Humidity Wind Chill (°F) Heat Index (°F) altimeter (in) sea level (mb) 1 hr 3 hr 6 hr
6 hour
Temperature (ºF) Pressure Precipitation (in)